Time;durP1;ratioP1;P1;durP2;ratioP2;P2;SDS_P1;SDS_P2;PMS_P1;PMS_P2;Temp;Humidity;BMP_temperature;BMP_pressure;BME280_temperature;BME280_humidity;BME280_pressure;Samples;Min_cycle;Max_cycle;Signal;HPM_P1;HPM_P2
2021/10/05 00:00:22;;;;;;;1.33;0.80;;;18.60;68.00;;;;;;5052718;28;20197;-74
2021/10/05 00:02:48;;;;;;;1.80;1.05;;;18.60;68.00;;;;;;5052529;28;20171;-77
2021/10/05 00:05:13;;;;;;;0.93;0.75;;;18.50;67.90;;;;;;5052202;28;20538;-76
2021/10/05 00:07:39;;;;;;;2.15;0.85;;;18.50;67.90;;;;;;5052847;28;20182;-75
2021/10/05 00:10:05;;;;;;;1.13;1.02;;;18.50;68.00;;;;;;5052346;28;20177;-74
2021/10/05 00:12:31;;;;;;;0.98;0.88;;;18.50;67.90;;;;;;5052347;28;20700;-73
2021/10/05 00:14:56;;;;;;;1.10;0.70;;;18.50;67.90;;;;;;5056667;28;20171;-75
2021/10/05 00:17:22;;;;;;;1.20;1.10;;;18.60;68.00;;;;;;5056260;28;20171;-77
2021/10/05 00:19:47;;;;;;;2.15;1.02;;;18.50;68.00;;;;;;5056467;28;20178;-76
2021/10/05 00:22:14;;;;;;;1.55;0.70;;;18.50;67.90;;;;;;5056506;28;20274;-77
2021/10/05 00:24:40;;;;;;;1.60;0.90;;;18.50;67.90;;;;;;5056908;28;20179;-75
2021/10/05 00:27:05;;;;;;;1.20;0.85;;;18.50;67.90;;;;;;5056525;28;20186;-76
2021/10/05 00:29:31;;;;;;;0.90;0.75;;;18.50;67.90;;;;;;5056552;28;20685;-73
2021/10/05 00:31:57;;;;;;;1.17;1.05;;;18.50;67.90;;;;;;5055679;28;20218;-76
2021/10/05 00:34:22;;;;;;;1.60;1.00;;;18.50;67.90;;;;;;5056561;28;20269;-74
2021/10/05 00:36:48;;;;;;;1.08;0.85;;;18.50;67.90;;;;;;5056069;28;20171;-77
2021/10/05 00:39:13;;;;;;;2.42;1.10;;;18.50;67.90;;;;;;5056270;28;20229;-76
2021/10/05 00:41:39;;;;;;;1.58;0.90;;;18.50;67.90;;;;;;5056854;28;20183;-78
2021/10/05 00:44:05;;;;;;;1.10;1.00;;;18.50;67.90;;;;;;5056428;28;20174;-75
2021/10/05 00:46:33;;;;;;;1.00;0.90;;;18.50;67.90;;;;;;5055826;28;20229;-76
2021/10/05 00:48:59;;;;;;;1.27;1.17;;;18.50;67.90;;;;;;5056115;28;20171;-75
2021/10/05 00:51:24;;;;;;;1.45;0.85;;;18.50;67.90;;;;;;5056072;28;20233;-75
2021/10/05 00:53:50;;;;;;;0.80;0.80;;;18.40;67.90;;;;;;5055258;28;20325;-76
2021/10/05 00:56:15;;;;;;;1.50;1.00;;;18.50;67.90;;;;;;5055105;28;20182;-76
2021/10/05 00:58:41;;;;;;;1.25;0.80;;;18.50;67.90;;;;;;5056347;28;20202;-74
2021/10/05 01:01:06;;;;;;;1.27;1.02;;;18.50;67.90;;;;;;5055077;28;20236;-77
2021/10/05 01:03:32;;;;;;;0.70;0.70;;;18.50;67.90;;;;;;5055994;28;20171;-77
2021/10/05 01:05:57;;;;;;;1.58;1.00;;;18.50;67.90;;;;;;5055913;28;20167;-76
2021/10/05 01:08:23;;;;;;;1.00;0.75;;;18.50;67.90;;;;;;5055301;28;20174;-75
2021/10/05 01:10:48;;;;;;;0.70;0.70;;;18.50;67.90;;;;;;5055714;28;20171;-72
2021/10/05 01:13:14;;;;;;;0.95;0.70;;;18.50;67.90;;;;;;5055817;28;20210;-73
2021/10/05 01:15:39;;;;;;;0.98;0.88;;;18.40;67.90;;;;;;5054993;28;20175;-74
2021/10/05 01:18:05;;;;;;;0.70;0.70;;;18.40;67.80;;;;;;5055517;28;20642;-75
2021/10/05 01:20:31;;;;;;;0.82;0.70;;;18.40;67.90;;;;;;5054937;28;20179;-75
2021/10/05 01:22:56;;;;;;;0.80;0.80;;;18.40;67.90;;;;;;5054812;28;20574;-76
2021/10/05 01:25:22;;;;;;;1.38;0.80;;;18.40;67.80;;;;;;5055501;28;20174;-76
2021/10/05 01:27:49;;;;;;;0.75;0.70;;;18.40;67.80;;;;;;5054866;28;20179;-72
2021/10/05 01:30:15;;;;;;;1.10;1.00;;;18.40;67.90;;;;;;5055760;28;20176;-76
2021/10/05 01:32:44;;;;;;;1.35;0.80;;;18.40;67.90;;;;;;5055514;28;20302;-76
2021/10/05 01:35:10;;;;;;;2.08;1.08;;;18.40;67.90;;;;;;5054420;28;20186;-76
2021/10/05 01:37:35;;;;;;;0.70;0.70;;;18.40;67.90;;;;;;5055324;28;20631;-75
2021/10/05 01:40:05;;;;;;;1.48;0.90;;;18.40;67.90;;;;;;5055155;28;20177;-78
2021/10/05 01:42:30;;;;;;;1.30;0.80;;;18.40;67.90;;;;;;5055129;28;20699;-76
2021/10/05 01:44:56;;;;;;;1.10;1.00;;;18.40;67.90;;;;;;5055378;28;20199;-78
2021/10/05 01:47:22;;;;;;;1.52;1.17;;;18.40;67.90;;;;;;5055297;28;20254;-77
2021/10/05 01:49:48;;;;;;;1.13;0.80;;;18.40;67.90;;;;;;5054061;28;20175;-75
2021/10/05 01:52:13;;;;;;;0.93;0.90;;;18.40;67.90;;;;;;5055155;28;20692;-76
2021/10/05 01:54:39;;;;;;;0.85;0.85;;;18.40;67.90;;;;;;5055145;28;20171;-75
2021/10/05 01:57:04;;;;;;;1.77;0.85;;;18.40;67.90;;;;;;5054015;28;20175;-74
2021/10/05 01:59:30;;;;;;;0.70;0.70;;;18.30;67.80;;;;;;5054884;28;20544;-77
2021/10/05 02:01:56;;;;;;;1.05;0.95;;;18.40;67.90;;;;;;5054535;28;20175;-78
2021/10/05 02:04:21;;;;;;;0.70;0.70;;;18.40;67.90;;;;;;5053983;28;20193;-76
2021/10/05 02:06:47;;;;;;;0.88;0.88;;;18.40;67.90;;;;;;5055036;28;20249;-76
2021/10/05 02:09:13;;;;;;;0.68;0.68;;;18.40;67.90;;;;;;5054962;28;20170;-72
2021/10/05 02:11:38;;;;;;;1.35;0.98;;;18.30;67.90;;;;;;5054205;28;20207;-72
2021/10/05 02:14:04;;;;;;;1.15;0.90;;;18.30;67.80;;;;;;5054565;28;20517;-72
2021/10/05 02:16:30;;;;;;;0.80;0.80;;;18.30;67.90;;;;;;5054874;28;20179;-73
2021/10/05 02:18:55;;;;;;;1.08;0.80;;;18.30;67.80;;;;;;5053511;28;20257;-75
2021/10/05 02:21:21;;;;;;;1.65;0.70;;;18.30;67.80;;;;;;5054591;28;20638;-77
2021/10/05 02:26:31;;;;;;;1.10;1.00;;;18.30;67.80;;;;;;5054780;28;20617;-75
2021/10/05 02:28:57;;;;;;;0.90;0.70;;;18.30;67.80;;;;;;5054636;28;20209;-73
2021/10/05 02:31:22;;;;;;;1.33;1.08;;;18.30;67.80;;;;;;5053676;28;20649;-75
2021/10/05 02:33:48;;;;;;;0.85;0.85;;;18.30;67.80;;;;;;5054142;28;20186;-76
2021/10/05 02:36:13;;;;;;;1.30;0.80;;;18.30;67.90;;;;;;5053745;28;20178;-76
2021/10/05 02:38:39;;;;;;;0.80;0.80;;;18.30;67.90;;;;;;5053707;28;20179;-75
2021/10/05 02:41:04;;;;;;;1.17;0.88;;;18.30;67.90;;;;;;5053996;28;20174;-77
2021/10/05 02:43:30;;;;;;;1.05;0.77;;;18.30;67.90;;;;;;5054271;28;20179;-75
2021/10/05 02:45:55;;;;;;;0.95;0.93;;;18.30;67.90;;;;;;5053105;28;20171;-78
2021/10/05 02:48:21;;;;;;;1.05;0.82;;;18.30;67.90;;;;;;5053962;28;20556;-76
2021/10/05 02:50:46;;;;;;;0.73;0.68;;;18.30;67.90;;;;;;5054149;28;20172;-76
2021/10/05 02:53:12;;;;;;;1.13;0.90;;;18.30;67.90;;;;;;5052983;28;20239;-75
2021/10/05 02:55:40;;;;;;;1.05;1.00;;;18.30;67.90;;;;;;5053984;28;20178;-77
2021/10/05 02:58:06;;;;;;;1.15;0.75;;;18.20;67.80;;;;;;5053583;28;20579;-74
2021/10/05 03:00:31;;;;;;;1.05;0.90;;;18.30;67.90;;;;;;5053179;28;20172;-77
2021/10/05 03:02:57;;;;;;;1.67;0.75;;;18.30;67.90;;;;;;5053754;28;20187;-78
2021/10/05 03:05:22;;;;;;;1.27;1.08;;;18.30;67.90;;;;;;5054323;28;20179;-77
2021/10/05 03:07:48;;;;;;;0.80;0.80;;;18.20;67.80;;;;;;5052539;28;20536;-74
2021/10/05 03:10:13;;;;;;;1.50;0.85;;;18.20;67.80;;;;;;5053376;28;20207;-75
2021/10/05 03:12:39;;;;;;;0.70;0.70;;;18.20;67.80;;;;;;5053701;28;20218;-73
2021/10/05 03:15:04;;;;;;;1.48;0.85;;;18.20;67.70;;;;;;5052309;28;20217;-75
2021/10/05 03:17:30;;;;;;;1.67;1.25;;;18.30;67.90;;;;;;5053396;28;20179;-76
2021/10/05 03:19:55;;;;;;;1.30;0.90;;;18.20;67.80;;;;;;5053216;28;20171;-74
2021/10/05 03:22:21;;;;;;;0.95;0.85;;;18.20;67.80;;;;;;5052501;28;20175;-76
2021/10/05 03:24:46;;;;;;;0.88;0.80;;;18.20;67.70;;;;;;5053747;28;20569;-77
2021/10/05 03:27:12;;;;;;;0.80;0.80;;;18.20;67.70;;;;;;5052352;28;20209;-72
2021/10/05 03:29:38;;;;;;;0.63;0.63;;;18.20;67.80;;;;;;5053771;28;20172;-75
2021/10/05 03:32:04;;;;;;;1.25;0.82;;;18.20;67.80;;;;;;5053286;28;20263;-77
2021/10/05 03:34:29;;;;;;;0.70;0.70;;;18.20;67.80;;;;;;5052865;28;20259;-76
2021/10/05 03:36:55;;;;;;;0.65;0.65;;;18.20;67.80;;;;;;5052876;28;20536;-75
2021/10/05 03:39:20;;;;;;;1.63;0.85;;;18.20;67.80;;;;;;5053334;28;20189;-74
2021/10/05 03:41:46;;;;;;;1.15;0.80;;;18.20;67.80;;;;;;5052543;28;20178;-77
2021/10/05 03:44:12;;;;;;;0.77;0.77;;;18.20;67.80;;;;;;5052785;28;20178;-75
2021/10/05 03:46:37;;;;;;;1.35;0.68;;;18.20;67.80;;;;;;5052894;28;20698;-78
2021/10/05 03:49:03;;;;;;;0.90;0.90;;;18.20;67.80;;;;;;5052168;28;20206;-75
2021/10/05 03:51:28;;;;;;;0.80;0.80;;;18.20;67.80;;;;;;5052801;28;20213;-75
2021/10/05 03:53:54;;;;;;;0.90;0.90;;;18.20;67.80;;;;;;5052520;28;20556;-75
2021/10/05 03:56:19;;;;;;;0.80;0.80;;;18.20;67.80;;;;;;5052172;28;20660;-76
2021/10/05 03:58:45;;;;;;;0.70;0.70;;;18.20;67.80;;;;;;5053134;28;20578;-76
2021/10/05 04:01:10;;;;;;;1.55;0.80;;;18.10;67.70;;;;;;5052646;28;20171;-78
2021/10/05 04:03:38;;;;;;;0.80;0.80;;;18.20;67.80;;;;;;5052335;28;20182;-77
2021/10/05 04:06:04;;;;;;;0.95;0.70;;;18.20;67.80;;;;;;5052737;28;20171;-76
2021/10/05 04:08:29;;;;;;;0.88;0.80;;;18.20;68.60;;;;;;5052917;28;20541;-73
2021/10/05 04:10:56;;;;;;;0.93;0.70;;;18.10;67.70;;;;;;5051663;28;20171;-73
2021/10/05 04:13:22;;;;;;;0.73;0.73;;;18.10;67.70;;;;;;5052579;28;20659;-72
2021/10/05 04:15:47;;;;;;;1.05;0.98;;;18.10;67.70;;;;;;5052248;28;20278;-73
2021/10/05 04:18:13;;;;;;;0.70;0.70;;;18.20;67.80;;;;;;5052037;28;20190;-75
2021/10/05 04:20:38;;;;;;;0.70;0.70;;;18.10;67.70;;;;;;5052896;28;20178;-75
2021/10/05 04:23:04;;;;;;;0.73;0.70;;;18.10;67.70;;;;;;5052233;28;20333;-76
2021/10/05 04:25:29;;;;;;;1.38;0.80;;;18.10;67.70;;;;;;5052125;28;20190;-77
2021/10/05 04:27:55;;;;;;;0.70;0.70;;;18.10;67.70;;;;;;5052334;28;20346;-77
2021/10/05 04:30:20;;;;;;;0.95;0.85;;;18.10;67.70;;;;;;5052011;28;20524;-74
2021/10/05 04:32:46;;;;;;;0.80;0.80;;;18.10;67.70;;;;;;5052363;28;20248;-77
2021/10/05 04:35:11;;;;;;;0.63;0.63;;;18.10;67.70;;;;;;5052309;28;20254;-78
2021/10/05 04:37:37;;;;;;;1.25;0.70;;;18.10;67.70;;;;;;5051966;28;20172;-75
2021/10/05 04:40:04;;;;;;;0.60;0.60;;;18.10;67.70;;;;;;5052364;28;20263;-74
2021/10/05 04:42:30;;;;;;;1.15;1.05;;;18.10;67.70;;;;;;5052261;28;20250;-78
2021/10/05 04:44:55;;;;;;;0.85;0.80;;;18.10;67.70;;;;;;5051448;28;20725;-74
2021/10/05 04:47:21;;;;;;;0.88;0.80;;;18.10;67.70;;;;;;5052533;28;20171;-77
2021/10/05 04:49:46;;;;;;;0.73;0.73;;;18.10;67.60;;;;;;5052273;28;20542;-75
2021/10/05 04:52:12;;;;;;;0.82;0.80;;;18.10;67.70;;;;;;5051213;28;20297;-74
2021/10/05 04:54:37;;;;;;;0.82;0.82;;;18.10;67.70;;;;;;5052400;28;20175;-76
2021/10/05 04:57:03;;;;;;;0.70;0.70;;;18.00;67.60;;;;;;5052190;28;20282;-78
2021/10/05 04:59:29;;;;;;;1.45;0.77;;;18.00;67.60;;;;;;5053235;28;20271;-77
2021/10/05 05:01:55;;;;;;;0.70;0.70;;;18.10;67.70;;;;;;5056227;28;20198;-77
2021/10/05 05:04:20;;;;;;;0.77;0.77;;;18.10;67.70;;;;;;5056180;28;20171;-76
2021/10/05 05:06:46;;;;;;;0.82;0.80;;;18.10;67.60;;;;;;5055453;28;20180;-77
2021/10/05 05:09:11;;;;;;;0.73;0.70;;;18.10;67.60;;;;;;5055507;28;20536;-74
2021/10/05 05:11:37;;;;;;;0.95;0.85;;;18.00;67.60;;;;;;5055759;28;20206;-74
2021/10/05 05:14:10;;;;;;;0.70;0.70;;;18.00;67.60;;;;;;5054703;28;20641;-74
2021/10/05 05:16:35;;;;;;;0.85;0.85;;;18.10;67.70;;;;;;5055947;28;20265;-74
2021/10/05 05:19:01;;;;;;;0.80;0.80;;;18.10;67.70;;;;;;5055434;28;20198;-77
2021/10/05 05:21:27;;;;;;;1.02;0.85;;;18.00;67.60;;;;;;5055003;28;20180;-75
2021/10/05 05:23:52;;;;;;;1.55;1.00;;;18.10;67.70;;;;;;5055617;28;20222;-76
2021/10/05 05:26:18;;;;;;;1.08;0.90;;;18.00;67.70;;;;;;5055606;28;20261;-76
2021/10/05 05:28:43;;;;;;;1.25;0.90;;;18.00;67.90;;;;;;5055131;28;20175;-77
2021/10/05 05:31:09;;;;;;;0.80;0.80;;;18.00;67.60;;;;;;5055323;28;20178;-75
2021/10/05 05:33:34;;;;;;;0.90;0.70;;;18.00;67.60;;;;;;5055637;28;20549;-75
2021/10/05 05:36:00;;;;;;;0.80;0.80;;;18.00;67.50;;;;;;5054366;28;20167;-77
2021/10/05 05:38:26;;;;;;;1.75;0.80;;;18.00;67.60;;;;;;5055482;28;20203;-74
2021/10/05 05:40:52;;;;;;;0.70;0.70;;;18.00;67.60;;;;;;5055105;28;20179;-73
2021/10/05 05:43:17;;;;;;;0.77;0.70;;;18.00;67.50;;;;;;5055518;28;20171;-75
2021/10/05 05:45:43;;;;;;;1.02;0.80;;;18.00;67.60;;;;;;5056110;28;20257;-73
2021/10/05 05:48:08;;;;;;;0.70;0.70;;;18.00;67.60;;;;;;5054636;28;20638;-77
2021/10/05 05:50:34;;;;;;;1.00;0.85;;;18.00;67.60;;;;;;5055320;28;20171;-76
2021/10/05 05:52:59;;;;;;;0.82;0.82;;;18.00;67.60;;;;;;5054856;28;20685;-76
2021/10/05 05:55:25;;;;;;;1.30;0.70;;;18.00;67.60;;;;;;5054244;28;20175;-76
2021/10/05 05:57:51;;;;;;;0.75;0.75;;;18.00;67.60;;;;;;5054726;28;20225;-78
2021/10/05 06:00:17;;;;;;;0.90;0.90;;;18.00;67.60;;;;;;5054811;28;20171;-77
2021/10/05 06:02:43;;;;;;;0.80;0.80;;;18.00;67.60;;;;;;5053052;28;20638;-77
2021/10/05 06:05:08;;;;;;;1.00;0.90;;;18.00;67.60;;;;;;5055485;28;20185;-77
2021/10/05 06:07:34;;;;;;;1.05;0.70;;;18.00;67.60;;;;;;5055203;28;20179;-74
2021/10/05 06:09:59;;;;;;;1.30;1.13;;;18.00;67.60;;;;;;5053186;28;20541;-72
2021/10/05 06:12:30;;;;;;;1.10;1.00;;;18.00;67.60;;;;;;5054367;28;20207;-73
2021/10/05 06:14:55;;;;;;;0.90;0.90;;;17.90;67.50;;;;;;5054542;28;20203;-75
2021/10/05 06:17:21;;;;;;;1.08;0.98;;;18.00;67.50;;;;;;5054087;28;20203;-73
2021/10/05 06:19:46;;;;;;;1.05;0.95;;;17.90;67.50;;;;;;5054572;28;20567;-75
2021/10/05 06:22:12;;;;;;;0.98;0.90;;;18.00;67.50;;;;;;5054554;28;20183;-76
2021/10/05 06:24:37;;;;;;;1.58;1.00;;;18.00;67.60;;;;;;5053831;28;20179;-79
2021/10/05 06:27:03;;;;;;;0.88;0.85;;;18.00;67.50;;;;;;5054419;28;20179;-73
2021/10/05 06:29:28;;;;;;;0.52;0.52;;;18.00;67.60;;;;;;5054987;28;20282;-76
2021/10/05 06:31:54;;;;;;;0.80;0.80;;;18.00;67.60;;;;;;5053554;28;20297;-77
2021/10/05 06:34:19;;;;;;;1.02;0.90;;;17.90;67.50;;;;;;5054485;28;20206;-75
2021/10/05 06:36:46;;;;;;;0.90;0.85;;;18.00;67.60;;;;;;5054288;28;20202;-75
2021/10/05 06:39:11;;;;;;;0.70;0.70;;;17.90;67.50;;;;;;5053524;28;20178;-77
2021/10/05 06:41:37;;;;;;;0.98;0.98;;;17.90;67.50;;;;;;5054341;28;20209;-74
2021/10/05 06:44:03;;;;;;;0.90;0.90;;;17.90;67.50;;;;;;5053590;28;20178;-71
2021/10/05 06:46:28;;;;;;;0.93;0.90;;;17.90;67.50;;;;;;5054437;28;20178;-76
2021/10/05 06:48:54;;;;;;;0.70;0.70;;;17.90;67.40;;;;;;5053807;28;20179;-75
2021/10/05 06:51:19;;;;;;;0.95;0.82;;;17.90;67.40;;;;;;5053106;28;20884;-75
2021/10/05 06:53:45;;;;;;;0.82;0.82;;;17.90;67.40;;;;;;5053804;28;20171;-76
2021/10/05 06:56:10;;;;;;;1.08;0.98;;;17.90;67.40;;;;;;5054041;28;20213;-79
2021/10/05 06:58:36;;;;;;;0.90;0.88;;;17.90;67.40;;;;;;5053305;28;20266;-75
2021/10/05 07:01:01;;;;;;;2.78;0.93;;;17.90;67.40;;;;;;5053533;28;20163;-64
2021/10/05 07:03:27;;;;;;;1.10;1.00;;;17.90;67.40;;;;;;5053920;28;20638;-71
2021/10/05 07:05:52;;;;;;;2.25;1.13;;;18.00;67.70;;;;;;5052722;28;20167;-66
2021/10/05 07:08:18;;;;;;;1.13;1.00;;;17.90;67.40;;;;;;5053735;28;20171;-66
2021/10/05 07:10:43;;;;;;;2.20;1.15;;;18.00;67.30;;;;;;5053537;28;20684;-61
2021/10/05 07:13:09;;;;;;;3.80;1.20;;;18.10;67.70;;;;;;5052399;28;20230;-62
2021/10/05 07:15:35;;;;;;;2.47;1.20;;;18.10;67.50;;;;;;5053606;28;20175;-63
2021/10/05 07:18:00;;;;;;;2.67;1.13;;;18.10;67.90;;;;;;5053030;28;20267;-63
2021/10/05 07:20:27;;;;;;;4.50;1.13;;;18.20;67.60;;;;;;5052670;28;20171;-64
2021/10/05 07:22:52;;;;;;;3.22;1.33;;;18.20;67.40;;;;;;5052779;28;20242;-63
2021/10/05 07:25:18;;;;;;;3.67;0.93;;;18.30;67.50;;;;;;5053222;28;20173;-63
2021/10/05 07:27:50;;;;;;;3.55;1.13;;;18.30;67.10;;;;;;5052808;28;20573;-62
2021/10/05 07:30:16;;;;;;;2.40;1.15;;;18.40;67.10;;;;;;5053629;28;20175;-62
2021/10/05 07:32:41;;;;;;;1.58;0.90;;;18.40;67.10;;;;;;5053165;28;20620;-63
2021/10/05 07:35:07;;;;;;;1.33;1.10;;;18.50;67.10;;;;;;5052242;28;20297;-63
2021/10/05 07:37:33;;;;;;;2.35;1.23;;;18.50;67.00;;;;;;5053031;28;20262;-64
2021/10/05 07:39:58;;;;;;;3.45;1.20;;;18.60;67.00;;;;;;5052985;28;20224;-64
2021/10/05 07:42:24;;;;;;;1.10;1.00;;;18.60;66.80;;;;;;5052508;28;20681;-64
2021/10/05 07:44:49;;;;;;;1.20;1.10;;;18.60;66.70;;;;;;5052863;28;20646;-64
2021/10/05 07:47:15;;;;;;;3.60;1.30;;;18.60;66.80;;;;;;5052790;28;20629;-63
2021/10/05 07:49:41;;;;;;;1.77;1.20;;;18.60;66.80;;;;;;5052585;28;20178;-63
2021/10/05 07:52:06;;;;;;;4.28;1.30;;;18.60;67.00;;;;;;5051734;28;20226;-63
2021/10/05 07:54:32;;;;;;;4.00;1.13;;;18.50;67.10;;;;;;5052482;28;20236;-63
2021/10/05 07:56:57;;;;;;;4.22;1.38;;;18.50;67.20;;;;;;5052530;28;20279;-63
2021/10/05 07:59:23;;;;;;;3.08;1.30;;;18.50;67.30;;;;;;5052929;28;20187;-62
2021/10/05 08:01:50;;;;;;;3.75;1.40;;;18.50;67.30;;;;;;5051968;28;20167;-63
2021/10/05 08:04:16;;;;;;;2.05;1.15;;;18.50;67.40;;;;;;5052859;28;20267;-63
2021/10/05 08:06:41;;;;;;;1.70;1.00;;;18.60;67.50;;;;;;5052642;28;20338;-63
2021/10/05 08:09:07;;;;;;;1.67;1.35;;;18.50;67.50;;;;;;5051633;28;20214;-62
2021/10/05 08:11:32;;;;;;;1.70;1.05;;;18.50;67.40;;;;;;5052803;28;20202;-62
2021/10/05 08:13:58;;;;;;;1.73;1.15;;;18.60;67.50;;;;;;5052539;28;20186;-63
2021/10/05 08:16:30;;;;;;;1.73;1.17;;;18.60;67.40;;;;;;5051773;28;20182;-63
2021/10/05 08:18:56;;;;;;;2.83;1.17;;;18.60;67.20;;;;;;5052388;28;20181;-63
2021/10/05 08:21:22;;;;;;;2.90;1.38;;;18.70;67.00;;;;;;5052546;28;20182;-63
2021/10/05 08:23:50;;;;;;;4.57;1.25;;;18.80;67.00;;;;;;5051370;28;20227;-63
2021/10/05 08:26:16;;;;;;;2.60;1.25;;;18.80;66.80;;;;;;5052645;28;20183;-63
2021/10/05 08:28:45;;;;;;;1.58;1.30;;;18.90;66.70;;;;;;5052644;28;20183;-62
2021/10/05 08:31:10;;;;;;;2.58;1.58;;;18.90;66.70;;;;;;5051514;28;20167;-62
2021/10/05 08:33:36;;;;;;;2.33;1.27;;;18.90;66.60;;;;;;5052697;28;20217;-63
2021/10/05 08:36:02;;;;;;;2.20;1.30;;;19.00;66.80;;;;;;5056019;28;20171;-63
2021/10/05 08:38:27;;;;;;;1.90;1.08;;;19.00;66.80;;;;;;5055961;28;20629;-63
2021/10/05 08:40:53;;;;;;;3.63;1.33;;;18.90;67.00;;;;;;5056307;28;20206;-64
2021/10/05 08:43:22;;;;;;;2.35;1.33;;;19.00;66.80;;;;;;5056266;28;20178;-64
2021/10/05 08:45:47;;;;;;;2.00;1.30;;;19.10;66.70;;;;;;5055517;28;20178;-72
2021/10/05 08:48:13;;;;;;;3.50;1.77;;;19.10;66.70;;;;;;5056038;28;20179;-74
2021/10/05 08:50:40;;;;;;;4.10;2.22;;;19.10;66.50;;;;;;5055554;28;20171;-65
2021/10/05 08:53:05;;;;;;;2.65;1.38;;;19.10;65.70;;;;;;5054916;28;20576;-65
2021/10/05 08:55:31;;;;;;;3.40;1.65;;;19.10;65.90;;;;;;5064753;28;20175;-64
2021/10/05 08:57:56;;;;;;;2.70;1.50;;;19.10;66.00;;;;;;5068758;28;20942;-65
2021/10/05 09:00:22;;;;;;;5.35;1.52;;;19.10;66.00;;;;;;5076057;28;20533;-65
2021/10/05 09:02:53;;;;;;;1.80;1.23;;;19.10;66.00;;;;;;5056253;28;20199;-65
2021/10/05 09:05:18;;;;;;;2.20;1.30;;;19.20;65.90;;;;;;5055412;28;20536;-65
2021/10/05 09:07:47;;;;;;;2.88;1.40;;;19.20;66.00;;;;;;5056062;28;20630;-64
2021/10/05 09:10:14;;;;;;;2.13;1.30;;;19.20;66.00;;;;;;5064173;28;20546;-65
2021/10/05 09:12:40;;;;;;;5.07;1.50;;;19.30;66.20;;;;;;5074802;28;20741;-64
2021/10/05 09:15:07;;;;;;;3.88;1.27;;;19.30;66.20;;;;;;5075565;28;20210;-64
2021/10/05 09:17:32;;;;;;;1.63;1.20;;;19.30;66.10;;;;;;5075639;28;20257;-65
2021/10/05 09:19:58;;;;;;;1.73;1.38;;;19.30;66.10;;;;;;5074353;28;20595;-65
2021/10/05 09:22:26;;;;;;;2.53;1.30;;;19.40;66.20;;;;;;5075449;28;20174;-65
2021/10/05 09:24:54;;;;;;;2.10;1.10;;;19.30;66.10;;;;;;5075465;28;20257;-64
2021/10/05 09:27:19;;;;;;;3.10;1.55;;;19.30;66.10;;;;;;5064922;28;20707;-63
2021/10/05 09:29:46;;;;;;;2.17;1.20;;;19.30;66.10;;;;;;5055584;28;20186;-63
2021/10/05 09:32:13;;;;;;;2.30;1.35;;;19.40;66.10;;;;;;5055003;28;20207;-64
2021/10/05 09:34:51;;;;;;;1.85;1.20;;;19.40;66.10;;;;;;5054915;28;20590;-65
2021/10/05 09:37:22;;;;;;;2.35;1.45;;;19.50;66.00;;;;;;5055466;28;20266;-66
2021/10/05 09:39:55;;;;;;;2.33;1.25;;;19.50;66.00;;;;;;5054959;28;20622;-66
2021/10/05 09:42:28;;;;;;;2.22;1.33;;;19.50;66.00;;;;;;5055305;28;20179;-65
2021/10/05 09:44:56;;;;;;;1.95;1.15;;;19.60;66.00;;;;;;5054768;28;20185;-64
2021/10/05 09:47:38;;;;;;;1.48;1.17;;;19.60;65.90;;;;;;5054325;28;20258;-65
2021/10/05 09:50:26;;;;;;;1.77;1.20;;;19.60;65.80;;;;;;5054981;28;20183;-65
2021/10/05 09:52:57;;;;;;;2.15;1.35;;;19.60;65.80;;;;;;5054748;28;20614;-65
2021/10/05 09:55:24;;;;;;;3.10;1.05;;;19.60;65.70;;;;;;5054332;28;20197;-65
2021/10/05 09:57:51;;;;;;;2.03;1.20;;;19.70;65.70;;;;;;5054733;28;20286;-65
2021/10/05 10:00:17;;;;;;;2.10;1.27;;;19.70;65.60;;;;;;5054921;28;20183;-65
2021/10/05 10:02:43;;;;;;;1.08;0.98;;;19.70;65.60;;;;;;5074448;28;20171;-65
2021/10/05 10:05:10;;;;;;;2.10;1.33;;;19.70;65.60;;;;;;5074571;28;20174;-65
2021/10/05 10:07:39;;;;;;;1.50;1.20;;;19.80;65.60;;;;;;5075084;28;20253;-64
2021/10/05 10:10:07;;;;;;;2.45;1.00;;;19.80;65.70;;;;;;5073758;28;20204;-65
2021/10/05 10:12:33;;;;;;;1.35;1.20;;;19.80;65.60;;;;;;5074926;28;20225;-64
2021/10/05 10:14:59;;;;;;;2.63;1.20;;;19.80;65.60;;;;;;5072754;28;20178;-65
2021/10/05 10:17:25;;;;;;;1.83;0.82;;;19.90;65.60;;;;;;5056735;28;20178;-66
2021/10/05 10:19:51;;;;;;;3.17;1.10;;;19.80;65.50;;;;;;5074408;28;20171;-63
2021/10/05 10:22:16;;;;;;;1.33;1.10;;;19.80;65.50;;;;;;5073557;28;20178;-63
2021/10/05 10:24:45;;;;;;;1.52;1.40;;;19.90;65.60;;;;;;5074518;28;20203;-63
2021/10/05 10:27:11;;;;;;;1.90;1.20;;;19.90;65.50;;;;;;5074186;28;20181;-62
2021/10/05 10:29:36;;;;;;;1.42;1.00;;;19.90;65.50;;;;;;5055948;28;20174;-62
2021/10/05 10:32:15;;;;;;;2.38;1.10;;;19.90;65.50;;;;;;5073850;28;20206;-62
2021/10/05 10:34:43;;;;;;;1.52;1.00;;;19.90;65.50;;;;;;5074107;28;20651;-62
2021/10/05 10:37:17;;;;;;;1.30;1.10;;;20.00;66.40;;;;;;5073457;28;20194;-63
2021/10/05 10:39:43;;;;;;;1.95;1.45;;;19.90;65.60;;;;;;5073990;28;20630;-63
2021/10/05 10:42:09;;;;;;;1.20;1.10;;;19.90;65.50;;;;;;5072827;28;20174;-63
2021/10/05 10:44:37;;;;;;;1.73;1.17;;;20.00;65.60;;;;;;5073568;28;20178;-63
2021/10/05 10:47:04;;;;;;;1.38;1.00;;;20.00;65.60;;;;;;5073664;28;20261;-64
2021/10/05 10:49:29;;;;;;;1.88;0.82;;;20.00;65.70;;;;;;5074369;28;20763;-63
2021/10/05 10:51:55;;;;;;;2.45;1.10;;;20.00;65.50;;;;;;5071854;28;20289;-63
2021/10/05 10:54:26;;;;;;;2.80;1.00;;;20.00;65.50;;;;;;5072695;28;20174;-61
2021/10/05 10:57:06;;;;;;;3.30;1.10;;;20.00;65.40;;;;;;5072823;28;20576;-61
2021/10/05 10:59:31;;;;;;;1.48;0.77;;;20.10;65.40;;;;;;5073083;28;20213;-62
2021/10/05 11:02:04;;;;;;;2.50;1.00;;;20.10;65.40;;;;;;5058763;28;20220;-61
2021/10/05 11:04:30;;;;;;;0.82;0.82;;;20.00;65.40;;;;;;5051555;28;20905;-62
2021/10/05 11:06:58;;;;;;;3.30;1.63;;;20.00;65.70;;;;;;5052215;28;20186;-61
2021/10/05 11:09:28;;;;;;;3.28;1.27;;;19.90;65.70;;;;;;5052461;28;20208;-61
2021/10/05 11:11:57;;;;;;;1.48;0.90;;;19.90;65.60;;;;;;5051375;28;20222;-62
2021/10/05 11:14:23;;;;;;;1.33;1.17;;;19.90;65.80;;;;;;5050189;28;20258;-62
2021/10/05 11:17:03;;;;;;;2.67;1.30;;;19.90;65.70;;;;;;5052618;28;20521;-62
2021/10/05 11:19:33;;;;;;;1.77;1.02;;;19.90;65.90;;;;;;5052404;28;20179;-63
2021/10/05 11:21:59;;;;;;;2.40;1.10;;;19.80;66.00;;;;;;5053132;28;20179;-62
2021/10/05 11:24:46;;;;;;;1.65;0.90;;;19.80;66.10;;;;;;5053303;28;20276;-62
2021/10/05 11:27:18;;;;;;;1.45;1.10;;;19.80;66.10;;;;;;5052434;28;20175;-61
2021/10/05 11:29:45;;;;;;;2.17;1.35;;;19.80;66.20;;;;;;5053467;28;20179;-61
2021/10/05 11:32:13;;;;;;;2.92;1.27;;;19.70;66.20;;;;;;5052889;28;20294;-61
2021/10/05 11:34:40;;;;;;;0.95;0.90;;;19.70;66.20;;;;;;5052544;28;20543;-62
2021/10/05 11:37:07;;;;;;;1.25;1.08;;;19.60;66.00;;;;;;5052657;28;20186;-63
2021/10/05 11:39:34;;;;;;;1.88;1.10;;;19.70;66.30;;;;;;5052571;28;20313;-64
2021/10/05 11:42:10;;;;;;;1.48;1.10;;;19.60;66.30;;;;;;5052668;28;20202;-64
2021/10/05 11:44:47;;;;;;;2.45;1.00;;;19.60;66.40;;;;;;5053267;28;20171;-64
2021/10/05 11:47:14;;;;;;;1.40;1.30;;;19.50;66.30;;;;;;5052254;28;20559;-64
2021/10/05 11:49:42;;;;;;;2.05;0.93;;;19.50;66.30;;;;;;5053189;28;20228;-63
2021/10/05 11:52:35;;;;;;;1.50;1.00;;;19.60;66.40;;;;;;5052827;28;20564;-63
2021/10/05 11:55:01;;;;;;;2.33;1.23;;;19.50;66.20;;;;;;5051067;28;20183;-63
2021/10/05 11:57:29;;;;;;;1.13;0.90;;;19.50;66.20;;;;;;5052892;28;20254;-63
2021/10/05 11:59:57;;;;;;;1.80;1.25;;;19.50;66.10;;;;;;5052486;28;20254;-64
2021/10/05 12:02:23;;;;;;;2.88;1.20;;;19.50;66.20;;;;;;5068019;28;20182;-63
2021/10/05 12:04:50;;;;;;;1.58;1.08;;;19.50;66.20;;;;;;5071516;28;20173;-64
2021/10/05 12:07:23;;;;;;;2.25;1.23;;;19.50;66.10;;;;;;5072914;28;20186;-63
2021/10/05 12:09:59;;;;;;;1.42;0.90;;;19.50;66.20;;;;;;5070891;28;20171;-63
2021/10/05 12:12:31;;;;;;;1.02;0.90;;;19.50;66.00;;;;;;5071481;28;20699;-63
2021/10/05 12:15:00;;;;;;;1.30;0.90;;;19.60;65.90;;;;;;5071724;28;20170;-63
2021/10/05 12:17:26;;;;;;;2.33;1.20;;;19.60;65.90;;;;;;5073451;28;20181;-63
2021/10/05 12:19:53;;;;;;;1.20;1.10;;;19.60;66.00;;;;;;5072504;28;20166;-64
2021/10/05 12:22:27;;;;;;;1.33;0.98;;;19.60;66.00;;;;;;5071864;28;20192;-63
2021/10/05 12:24:57;;;;;;;0.70;0.70;;;19.50;66.00;;;;;;5072509;28;20186;-63
2021/10/05 12:27:25;;;;;;;3.47;1.08;;;19.50;66.10;;;;;;5072565;28;20237;-63
2021/10/05 12:30:06;;;;;;;2.05;0.98;;;19.40;66.20;;;;;;5071835;28;20184;-62
2021/10/05 12:32:46;;;;;;;1.70;1.00;;;19.40;66.20;;;;;;5072705;28;20293;-63
2021/10/05 12:35:19;;;;;;;2.28;1.05;;;19.40;66.30;;;;;;5072276;28;20170;-62
2021/10/05 12:37:45;;;;;;;1.15;1.10;;;19.30;66.30;;;;;;5071453;28;20257;-64
2021/10/05 12:40:11;;;;;;;2.13;1.20;;;19.40;66.40;;;;;;5072344;28;20688;-66
2021/10/05 12:42:44;;;;;;;2.35;1.20;;;19.30;66.40;;;;;;5072550;28;20189;-66
2021/10/05 12:45:15;;;;;;;2.45;1.10;;;19.30;66.40;;;;;;5072328;28;20175;-66
2021/10/05 12:47:57;;;;;;;3.58;1.20;;;19.30;66.30;;;;;;5072590;28;20174;-65